Time;durP1;ratioP1;P1;durP2;ratioP2;P2;SDS_P1;SDS_P2;PMS_P1;PMS_P2;Temp;Humidity;BMP_temperature;BMP_pressure;BME280_temperature;BME280_humidity;BME280_pressure;Samples;Min_cycle;Max_cycle;Signal;HPM_P1;HPM_P2
2021/12/15 00:02:22;;;;;;;20.55;14.77;;;6.00;96.70;;;;;;4975477;28;20077;-70
2021/12/15 00:04:52;;;;;;;21.35;14.50;;;6.00;96.70;;;;;;4964168;28;20091;-70
2021/12/15 00:07:22;;;;;;;21.08;14.20;;;5.90;96.70;;;;;;4975692;28;20049;-70
2021/12/15 00:09:51;;;;;;;24.58;14.68;;;5.90;96.70;;;;;;4974845;28;20110;-70
2021/12/15 00:12:19;;;;;;;21.33;14.43;;;5.90;96.70;;;;;;4960057;28;20038;-70
2021/12/15 00:14:49;;;;;;;21.70;13.77;;;5.90;96.70;;;;;;4974137;28;20051;-70
2021/12/15 00:17:18;;;;;;;22.52;14.40;;;5.80;96.70;;;;;;4940955;28;20823;-70
2021/12/15 00:19:46;;;;;;;24.15;15.45;;;5.80;96.70;;;;;;4958480;28;20049;-70
2021/12/15 00:22:14;;;;;;;18.73;13.43;;;5.80;96.70;;;;;;4974720;28;20661;-70
2021/12/15 00:24:42;;;;;;;17.95;13.05;;;5.70;96.70;;;;;;4975069;28;20560;-70
2021/12/15 00:27:10;;;;;;;21.80;14.15;;;5.70;96.70;;;;;;4978649;28;20104;-70
2021/12/15 00:29:38;;;;;;;17.10;12.65;;;5.70;96.70;;;;;;4955357;28;20093;-70
2021/12/15 00:32:09;;;;;;;16.60;13.25;;;5.70;96.70;;;;;;4957867;28;20050;-70
2021/12/15 00:34:38;;;;;;;19.35;13.95;;;5.70;96.70;;;;;;4957155;28;20398;-70
2021/12/15 00:37:09;;;;;;;18.45;14.00;;;5.70;96.70;;;;;;4956553;28;20046;-70
2021/12/15 00:39:37;;;;;;;18.35;13.18;;;5.70;96.70;;;;;;4960327;28;20043;-70
2021/12/15 00:42:06;;;;;;;19.13;13.60;;;5.70;96.70;;;;;;4939303;28;20413;-70
2021/12/15 00:44:40;;;;;;;23.70;14.68;;;5.70;96.70;;;;;;4958859;28;20133;-70
2021/12/15 00:47:12;;;;;;;18.85;13.98;;;5.60;96.70;;;;;;4972753;28;20475;-70
2021/12/15 00:49:41;;;;;;;19.13;14.50;;;5.60;96.70;;;;;;4976874;28;20622;-70
2021/12/15 00:52:14;;;;;;;19.45;13.82;;;5.60;96.70;;;;;;4961121;28;20045;-70
2021/12/15 00:54:43;;;;;;;23.13;14.68;;;5.60;96.70;;;;;;4958046;28;20050;-70
2021/12/15 00:57:16;;;;;;;22.23;13.60;;;5.60;96.70;;;;;;4974587;28;20066;-70
2021/12/15 00:59:44;;;;;;;20.33;13.70;;;5.50;96.70;;;;;;4973099;28;20043;-70
2021/12/15 01:02:23;;;;;;;17.20;11.98;;;5.50;96.70;;;;;;4959819;28;20534;-70
2021/12/15 01:04:54;;;;;;;19.02;12.52;;;5.40;96.70;;;;;;4959307;28;20141;-69
2021/12/15 01:07:25;;;;;;;19.35;12.88;;;5.50;96.70;;;;;;4956593;28;20070;-69
2021/12/15 01:09:57;;;;;;;20.77;13.27;;;5.50;96.70;;;;;;4941752;28;20047;-69
2021/12/15 01:14:29;;;;;;;16.48;12.15;;;5.50;96.70;;;;;;4964218;28;20054;-69
2021/12/15 01:21:17;;;;;;;18.83;11.15;;;5.50;96.70;;;;;;4975891;28;20125;-70
2021/12/15 01:23:46;;;;;;;15.18;10.68;;;5.50;96.70;;;;;;4956935;28;20047;-70
2021/12/15 01:26:16;;;;;;;17.80;11.07;;;5.50;96.70;;;;;;4976917;28;20468;-70
2021/12/15 01:28:44;;;;;;;19.55;11.80;;;5.50;96.70;;;;;;4941437;28;20057;-70
2021/12/15 01:31:12;;;;;;;17.17;11.80;;;5.50;96.70;;;;;;4964700;28;20041;-70
2021/12/15 01:33:42;;;;;;;18.80;11.63;;;5.40;96.70;;;;;;4945084;28;20098;-70
2021/12/15 01:36:13;;;;;;;16.95;11.25;;;5.40;96.70;;;;;;4975927;28;20050;-70
2021/12/15 01:38:44;;;;;;;17.83;11.65;;;5.40;96.70;;;;;;4957695;28;20054;-70
2021/12/15 01:41:20;;;;;;;18.98;12.23;;;5.30;96.70;;;;;;4957719;28;20042;-70
2021/12/15 01:46:55;;;;;;;20.20;11.20;;;5.20;96.70;;;;;;4958538;28;20093;-70
2021/12/15 01:49:37;;;;;;;18.40;10.05;;;5.30;96.70;;;;;;4964583;28;20042;-70
2021/12/15 01:52:10;;;;;;;16.27;10.65;;;5.30;96.70;;;;;;4978402;28;20449;-70
2021/12/15 01:54:41;;;;;;;17.02;11.77;;;5.30;96.70;;;;;;4970786;28;20053;-70
2021/12/15 01:57:12;;;;;;;14.57;10.55;;;5.30;96.70;;;;;;4953789;28;20045;-70
2021/12/15 01:59:41;;;;;;;15.93;10.88;;;5.20;96.70;;;;;;4975369;28;20070;-68
2021/12/15 02:02:10;;;;;;;15.55;10.38;;;5.30;96.70;;;;;;4973672;28;20371;-70
2021/12/15 02:04:39;;;;;;;14.27;11.10;;;5.20;96.70;;;;;;4978987;28;20046;-70
2021/12/15 02:07:14;;;;;;;14.52;10.07;;;5.20;96.70;;;;;;4969529;28;20043;-69
2021/12/15 02:12:40;;;;;;;14.38;10.13;;;5.10;96.70;;;;;;4957871;28;20046;-69
2021/12/15 02:15:14;;;;;;;14.75;10.45;;;5.20;96.70;;;;;;4956098;28;20055;-70
2021/12/15 02:17:43;;;;;;;12.15;9.15;;;5.20;96.70;;;;;;4955070;28;20050;-70
2021/12/15 02:20:26;;;;;;;13.32;9.55;;;5.10;96.70;;;;;;4952463;28;20039;-70
2021/12/15 02:22:54;;;;;;;12.40;9.40;;;5.00;96.70;;;;;;4953976;28;20497;-69
2021/12/15 02:25:23;;;;;;;12.88;9.48;;;5.10;96.70;;;;;;4957771;28;20515;-69
2021/12/15 02:27:52;;;;;;;11.30;8.98;;;5.00;96.70;;;;;;4926199;28;20201;-70
2021/12/15 02:33:23;;;;;;;13.02;9.48;;;5.00;96.70;;;;;;4911656;29;20399;-69
2021/12/15 02:38:45;;;;;;;13.18;8.50;;;4.90;96.70;;;;;;4918396;29;20489;-69
2021/12/15 02:41:23;;;;;;;15.55;9.70;;;4.90;96.70;;;;;;4910484;29;20043;-69
2021/12/15 02:43:56;;;;;;;11.63;8.90;;;4.80;96.70;;;;;;4911454;29;20423;-69
2021/12/15 02:46:25;;;;;;;13.13;9.20;;;4.70;96.70;;;;;;4913866;29;20048;-70
2021/12/15 02:48:53;;;;;;;11.32;8.70;;;4.70;96.70;;;;;;4926987;28;20059;-69
2021/12/15 02:51:24;;;;;;;13.90;9.18;;;4.60;96.70;;;;;;4912577;28;20301;-70
2021/12/15 02:53:53;;;;;;;12.32;8.40;;;4.60;96.70;;;;;;4923603;29;20062;-69
2021/12/15 02:56:23;;;;;;;12.18;8.73;;;4.60;96.70;;;;;;4925164;28;20083;-69
2021/12/15 02:58:57;;;;;;;10.30;7.80;;;4.70;96.70;;;;;;4945781;28;20491;-69
2021/12/15 03:01:41;;;;;;;11.85;7.72;;;4.70;96.70;;;;;;4953666;28;20389;-69
2021/12/15 03:04:24;;;;;;;11.55;7.80;;;4.60;96.70;;;;;;4969249;28;20738;-70
2021/12/15 03:07:03;;;;;;;12.07;8.70;;;4.60;96.70;;;;;;4956867;28;20141;-69
2021/12/15 03:17:52;;;;;;;8.27;6.80;;;4.60;96.70;;;;;;4969545;28;20049;-69
2021/12/15 03:20:21;;;;;;;11.88;7.63;;;4.60;96.70;;;;;;4972962;28;20138;-69
2021/12/15 03:22:51;;;;;;;9.13;7.05;;;4.60;96.70;;;;;;4970136;28;20053;-70
2021/12/15 03:25:19;;;;;;;10.80;7.13;;;4.60;96.70;;;;;;4951309;28;20050;-69
2021/12/15 03:36:36;;;;;;;12.48;8.05;;;4.50;96.70;;;;;;4914977;28;20051;-69
2021/12/15 03:39:12;;;;;;;12.40;7.22;;;4.40;96.70;;;;;;4972249;28;20167;-70
2021/12/15 03:41:40;;;;;;;12.95;7.90;;;4.30;96.70;;;;;;4955781;28;20039;-69
2021/12/15 03:44:08;;;;;;;11.65;7.55;;;4.30;96.70;;;;;;4939942;28;20053;-69
2021/12/15 03:46:37;;;;;;;15.38;8.32;;;4.30;96.70;;;;;;4956843;28;20054;-69
2021/12/15 03:49:05;;;;;;;10.18;6.95;;;4.30;96.70;;;;;;4973567;28;20481;-69
2021/12/15 03:51:34;;;;;;;11.70;7.68;;;4.30;96.70;;;;;;4975188;28;20125;-69
2021/12/15 03:54:02;;;;;;;12.13;6.72;;;4.30;96.70;;;;;;4959528;28;20440;-69
2021/12/15 03:56:31;;;;;;;9.57;6.25;;;4.30;96.70;;;;;;4952538;28;20046;-69
2021/12/15 03:58:59;;;;;;;8.85;6.47;;;4.30;96.70;;;;;;4953028;28;20162;-70
2021/12/15 04:01:27;;;;;;;10.70;6.65;;;4.30;96.70;;;;;;4971639;28;20398;-70
2021/12/15 04:03:56;;;;;;;10.65;6.80;;;4.30;96.70;;;;;;4951489;28;20421;-69
2021/12/15 04:06:27;;;;;;;9.30;7.03;;;4.30;96.70;;;;;;4954136;28;20050;-69
2021/12/15 04:08:57;;;;;;;9.60;6.57;;;4.30;96.70;;;;;;4971828;28;20065;-69
2021/12/15 04:11:32;;;;;;;10.05;7.15;;;4.30;96.70;;;;;;4952431;28;20044;-69
2021/12/15 04:14:04;;;;;;;9.87;7.63;;;4.30;96.70;;;;;;4955890;28;20519;-69
2021/12/15 04:19:01;;;;;;;8.82;6.97;;;4.20;96.70;;;;;;4971354;28;20492;-69
2021/12/15 04:21:29;;;;;;;10.38;8.00;;;4.20;96.70;;;;;;4951192;28;20046;-69
2021/12/15 04:23:58;;;;;;;11.43;8.32;;;4.20;96.70;;;;;;4976047;28;20038;-69
2021/12/15 04:26:27;;;;;;;10.20;7.20;;;4.20;96.70;;;;;;4954103;28;20482;-69
2021/12/15 04:28:55;;;;;;;10.57;7.15;;;4.20;96.70;;;;;;4970825;28;20042;-69
2021/12/15 04:31:31;;;;;;;12.38;7.80;;;4.20;96.70;;;;;;4953011;28;20074;-69
2021/12/15 04:34:04;;;;;;;11.23;7.82;;;4.20;96.70;;;;;;4973465;28;20043;-69
2021/12/15 04:36:35;;;;;;;10.50;7.22;;;4.20;96.70;;;;;;4956834;28;20146;-69
2021/12/15 04:39:05;;;;;;;10.80;8.18;;;4.20;96.70;;;;;;4973394;28;20046;-69
2021/12/15 04:41:34;;;;;;;8.55;6.85;;;4.20;96.70;;;;;;4971894;28;20492;-69
2021/12/15 04:44:09;;;;;;;10.02;6.63;;;4.20;96.70;;;;;;4943657;28;20070;-69
2021/12/15 04:46:42;;;;;;;9.35;7.00;;;4.10;96.70;;;;;;4973193;28;20074;-69
2021/12/15 04:49:13;;;;;;;8.88;5.88;;;4.10;96.70;;;;;;4972479;28;20431;-69
2021/12/15 04:51:41;;;;;;;9.35;6.75;;;4.10;96.70;;;;;;4961261;28;20042;-69
2021/12/15 04:54:09;;;;;;;11.32;7.40;;;4.10;96.70;;;;;;4959113;28;20042;-69
2021/12/15 04:56:39;;;;;;;9.27;6.57;;;4.10;96.70;;;;;;4957340;28;20069;-69
2021/12/15 04:59:07;;;;;;;9.20;6.15;;;4.10;96.70;;;;;;4956357;28;20258;-69
2021/12/15 05:01:35;;;;;;;12.40;7.03;;;4.00;96.70;;;;;;4974135;28;20341;-69
2021/12/15 05:04:05;;;;;;;8.10;6.43;;;3.90;96.70;;;;;;4980022;28;20133;-69
2021/12/15 05:06:34;;;;;;;8.48;6.13;;;4.00;96.70;;;;;;4971493;28;20921;-69
2021/12/15 05:09:03;;;;;;;8.63;5.60;;;4.10;96.70;;;;;;4974818;28;20041;-69
2021/12/15 05:11:31;;;;;;;8.35;5.93;;;4.10;96.70;;;;;;4958830;28;20042;-69
2021/12/15 05:13:59;;;;;;;9.52;6.60;;;4.10;96.70;;;;;;4975109;28;20128;-69
2021/12/15 05:16:27;;;;;;;12.50;5.78;;;4.00;96.70;;;;;;4959468;28;20137;-69
2021/12/15 05:18:55;;;;;;;7.40;6.07;;;4.00;96.70;;;;;;4969231;28;20039;-70
2021/12/15 05:21:25;;;;;;;8.30;5.82;;;4.10;96.70;;;;;;4973227;28;20043;-70
2021/12/15 05:23:57;;;;;;;10.07;6.03;;;4.10;96.70;;;;;;4974811;28;20074;-70
2021/12/15 05:26:25;;;;;;;8.73;6.50;;;4.00;96.70;;;;;;4958482;28;20129;-69
2021/12/15 05:28:53;;;;;;;8.30;6.10;;;4.00;96.70;;;;;;4975266;28;20070;-69
2021/12/15 05:31:21;;;;;;;7.53;6.05;;;4.00;96.70;;;;;;4950073;28;20049;-69
2021/12/15 05:33:50;;;;;;;8.40;6.07;;;4.00;96.70;;;;;;4975750;28;20034;-69
2021/12/15 05:36:18;;;;;;;8.55;6.13;;;4.00;96.70;;;;;;4961527;28;20045;-69
2021/12/15 05:38:52;;;;;;;7.68;6.05;;;4.00;96.70;;;;;;4982203;28;20620;-70
2021/12/15 05:41:25;;;;;;;10.75;6.50;;;4.00;96.70;;;;;;4959141;28;20130;-69
2021/12/15 05:43:53;;;;;;;8.73;6.70;;;4.00;96.70;;;;;;4946384;28;20062;-69
2021/12/15 05:46:22;;;;;;;9.43;6.65;;;3.90;96.70;;;;;;4958061;28;20138;-69
2021/12/15 05:48:50;;;;;;;8.65;6.63;;;3.90;96.70;;;;;;4971989;28;20572;-70
2021/12/15 05:51:18;;;;;;;7.53;6.05;;;3.90;96.70;;;;;;4974534;28;20497;-69
2021/12/15 05:53:48;;;;;;;9.02;6.40;;;3.90;96.70;;;;;;4954576;28;20053;-69
2021/12/15 05:56:18;;;;;;;8.57;5.80;;;3.90;96.70;;;;;;4958574;28;20043;-69
2021/12/15 05:58:46;;;;;;;9.82;6.60;;;3.90;96.70;;;;;;4973561;28;20174;-69
2021/12/15 06:01:15;;;;;;;9.15;6.53;;;3.90;96.70;;;;;;4959883;28;20120;-69
2021/12/15 06:03:43;;;;;;;9.88;6.43;;;3.80;96.70;;;;;;4974590;28;20043;-69
2021/12/15 06:06:11;;;;;;;8.10;6.35;;;3.90;96.70;;;;;;4958866;28;20042;-69
2021/12/15 06:08:39;;;;;;;8.95;6.50;;;3.90;96.70;;;;;;4961147;28;20039;-69
2021/12/15 06:11:09;;;;;;;9.73;6.32;;;3.80;96.70;;;;;;4965799;28;20051;-69
2021/12/15 06:13:37;;;;;;;9.75;6.43;;;3.80;96.70;;;;;;4977584;28;20047;-69
2021/12/15 06:16:06;;;;;;;9.25;6.35;;;3.80;96.70;;;;;;4976706;28;20133;-69
2021/12/15 06:18:34;;;;;;;9.48;6.85;;;3.70;96.70;;;;;;4973122;28;20046;-69
2021/12/15 06:21:02;;;;;;;7.63;5.82;;;3.60;96.70;;;;;;4960485;28;20403;-69
2021/12/15 06:23:30;;;;;;;8.15;6.22;;;3.60;96.70;;;;;;4973912;28;20031;-69
2021/12/15 06:26:01;;;;;;;10.73;6.57;;;3.60;96.70;;;;;;4969772;28;20054;-69
2021/12/15 06:28:35;;;;;;;8.32;6.30;;;3.60;96.70;;;;;;4957958;28;20046;-69
2021/12/15 06:31:06;;;;;;;11.40;6.75;;;3.50;96.70;;;;;;4938640;28;20472;-70
2021/12/15 06:33:38;;;;;;;8.32;6.00;;;3.50;96.70;;;;;;4926511;28;20424;-69
2021/12/15 06:36:07;;;;;;;7.80;5.95;;;3.40;96.70;;;;;;4930942;28;20050;-69
2021/12/15 06:38:39;;;;;;;9.25;6.50;;;3.40;96.70;;;;;;4975496;28;20034;-69
2021/12/15 06:41:09;;;;;;;6.07;5.47;;;3.40;96.70;;;;;;4971810;28;20133;-69
2021/12/15 06:43:45;;;;;;;9.00;6.18;;;3.50;96.70;;;;;;4972723;28;20038;-69
2021/12/15 06:57:33;;;;;;;8.95;6.38;;;3.60;96.70;;;;;;4952275;28;20045;-69
2021/12/15 07:00:08;;;;;;;9.75;6.35;;;3.60;96.70;;;;;;4968671;28;20507;-69
2021/12/15 07:02:36;;;;;;;8.98;6.35;;;3.60;96.70;;;;;;4956957;28;20575;-69
2021/12/15 07:05:08;;;;;;;10.32;7.63;;;3.60;96.70;;;;;;4974501;28;20064;-69
2021/12/15 07:07:36;;;;;;;10.27;7.38;;;3.70;96.70;;;;;;4953066;28;20456;-70
2021/12/15 07:10:07;;;;;;;13.00;8.27;;;3.70;96.70;;;;;;4949260;28;20054;-70
2021/12/15 07:12:35;;;;;;;10.25;7.75;;;3.60;96.70;;;;;;4958710;28;20482;-70
2021/12/15 07:15:08;;;;;;;10.88;7.95;;;3.60;96.70;;;;;;4967301;28;20414;-70
2021/12/15 07:17:39;;;;;;;11.57;7.60;;;3.70;96.70;;;;;;4972180;28;20313;-71
2021/12/15 07:22:57;;;;;;;10.95;7.90;;;3.60;96.70;;;;;;4974004;28;20070;-69
2021/12/15 07:25:25;;;;;;;10.05;6.65;;;3.70;96.70;;;;;;4958356;28;20097;-70
2021/12/15 07:27:53;;;;;;;10.20;7.20;;;3.70;96.70;;;;;;4953861;28;20409;-70
2021/12/15 07:30:23;;;;;;;8.07;6.18;;;3.80;96.70;;;;;;4956372;28;20422;-70
2021/12/15 07:32:52;;;;;;;9.90;6.18;;;3.80;96.70;;;;;;4958611;28;20282;-70
2021/12/15 07:35:22;;;;;;;11.68;6.28;;;3.90;96.70;;;;;;4956564;28;20133;-70
2021/12/15 07:37:51;;;;;;;9.05;6.35;;;3.90;96.70;;;;;;4960531;28;20046;-70
2021/12/15 07:40:21;;;;;;;8.45;6.10;;;3.90;96.70;;;;;;4954608;28;20048;-70
2021/12/15 07:42:56;;;;;;;9.20;6.40;;;3.90;96.70;;;;;;4972253;28;20042;-71
2021/12/15 07:45:28;;;;;;;11.18;6.75;;;3.90;96.70;;;;;;4956548;28;20035;-70
2021/12/15 07:47:58;;;;;;;11.52;6.13;;;4.00;96.70;;;;;;4972095;28;20042;-70
2021/12/15 07:50:27;;;;;;;11.75;6.85;;;4.20;96.70;;;;;;4952860;28;20538;-71
2021/12/15 07:52:55;;;;;;;10.57;6.20;;;4.20;96.70;;;;;;4973388;28;20520;-70
2021/12/15 07:55:25;;;;;;;9.43;6.70;;;4.20;96.70;;;;;;4974642;28;20136;-70
2021/12/15 07:57:53;;;;;;;11.00;6.90;;;4.20;96.70;;;;;;4953601;28;20446;-70
2021/12/15 08:00:24;;;;;;;9.75;7.35;;;4.20;96.70;;;;;;4952475;28;20039;-70
2021/12/15 08:02:54;;;;;;;12.30;7.90;;;4.20;96.70;;;;;;4952793;28;20056;-70
2021/12/15 08:05:22;;;;;;;12.40;7.70;;;4.20;96.70;;;;;;4970741;28;20046;-71
2021/12/15 08:07:50;;;;;;;10.30;7.20;;;4.20;96.70;;;;;;4971098;28;20368;-70
2021/12/15 08:10:18;;;;;;;10.00;7.32;;;4.10;96.70;;;;;;4958017;28;20047;-70
2021/12/15 08:12:47;;;;;;;10.10;6.57;;;4.20;96.70;;;;;;4974944;28;20054;-70
2021/12/15 08:15:17;;;;;;;8.23;6.07;;;4.30;96.70;;;;;;4959711;28;20047;-70
2021/12/15 08:17:50;;;;;;;10.13;6.38;;;4.30;96.70;;;;;;4950876;28;20049;-70
2021/12/15 08:20:23;;;;;;;9.93;6.57;;;4.40;96.70;;;;;;4971818;28;20122;-70
2021/12/15 08:22:51;;;;;;;8.90;6.90;;;4.50;96.70;;;;;;4978904;28;20053;-70
2021/12/15 08:25:19;;;;;;;11.60;6.78;;;4.50;96.70;;;;;;4961488;28;20053;-70
2021/12/15 08:27:49;;;;;;;7.90;5.97;;;4.60;96.70;;;;;;4971181;28;20489;-70
2021/12/15 08:30:20;;;;;;;10.85;6.47;;;4.60;96.70;;;;;;4958092;28;20052;-70
2021/12/15 08:32:49;;;;;;;9.05;6.28;;;4.70;96.70;;;;;;4955623;28;20042;-70
2021/12/15 08:35:22;;;;;;;9.52;7.13;;;4.90;96.70;;;;;;4966264;28;20415;-70
2021/12/15 08:37:50;;;;;;;8.60;6.93;;;4.90;96.70;;;;;;4946470;28;20038;-70
2021/12/15 08:40:20;;;;;;;11.23;6.65;;;4.90;96.70;;;;;;4979922;28;20034;-70
2021/12/15 08:42:51;;;;;;;10.95;6.43;;;5.00;96.70;;;;;;4941978;28;20051;-70
2021/12/15 08:45:20;;;;;;;9.57;6.45;;;5.10;96.70;;;;;;4960392;28;20041;-70
2021/12/15 08:47:50;;;;;;;8.98;6.80;;;5.10;96.70;;;;;;4956380;28;20050;-70
2021/12/15 08:50:29;;;;;;;7.70;5.95;;;5.20;96.70;;;;;;4977648;28;20038;-70
2021/12/15 08:52:58;;;;;;;7.72;6.35;;;5.40;96.70;;;;;;4972280;28;20070;-70
2021/12/15 08:55:27;;;;;;;7.70;6.47;;;5.40;96.70;;;;;;4971791;28;20061;-70
2021/12/15 08:57:57;;;;;;;8.50;6.40;;;5.40;96.70;;;;;;4946983;28;20051;-70
2021/12/15 09:00:26;;;;;;;8.43;6.18;;;5.50;96.70;;;;;;4982472;28;20118;-70
2021/12/15 09:02:55;;;;;;;9.60;6.78;;;5.60;96.70;;;;;;4943978;28;20050;-70
2021/12/15 09:05:24;;;;;;;10.68;6.15;;;5.70;96.70;;;;;;4970106;28;20133;-70
2021/12/15 09:07:56;;;;;;;11.13;5.88;;;5.80;96.70;;;;;;4973356;28;20359;-70
2021/12/15 09:10:27;;;;;;;10.35;6.43;;;5.90;96.70;;;;;;4976180;28;20162;-70
2021/12/15 09:12:55;;;;;;;8.80;6.05;;;6.00;96.70;;;;;;4977047;28;20130;-70
2021/12/15 09:15:24;;;;;;;7.78;6.15;;;6.00;96.70;;;;;;4954586;28;20453;-70
2021/12/15 09:17:52;;;;;;;7.78;6.45;;;6.10;96.70;;;;;;4959428;28;20046;-71
2021/12/15 09:20:23;;;;;;;8.70;5.85;;;6.20;96.70;;;;;;4954025;28;20051;-70
2021/12/15 09:22:51;;;;;;;8.38;6.45;;;6.40;96.70;;;;;;4953259;28;20142;-71
2021/12/15 09:25:21;;;;;;;9.35;6.63;;;6.40;96.70;;;;;;4958551;28;20054;-70
2021/12/15 09:27:49;;;;;;;9.63;7.40;;;6.40;96.70;;;;;;4947979;28;20051;-70
2021/12/15 09:30:20;;;;;;;13.75;8.32;;;6.50;96.70;;;;;;4952977;28;21082;-70
2021/12/15 09:32:48;;;;;;;14.00;10.57;;;6.60;96.70;;;;;;4957253;28;20046;-70
2021/12/15 09:35:20;;;;;;;19.45;13.50;;;6.60;96.70;;;;;;4950608;28;20138;-70
2021/12/15 09:37:48;;;;;;;20.10;14.27;;;6.70;96.70;;;;;;4954085;28;20070;-70
2021/12/15 09:40:18;;;;;;;20.25;13.02;;;6.70;96.70;;;;;;4954145;28;20400;-70
2021/12/15 09:42:47;;;;;;;17.98;13.15;;;6.80;96.70;;;;;;4954411;28;20359;-70
2021/12/15 09:56:23;;;;;;;15.55;11.48;;;7.10;96.70;;;;;;4952066;28;20496;-70
2021/12/15 10:20:54;;;;;;;12.98;9.45;;;8.60;96.70;;;;;;4960638;28;20089;-71
2021/12/15 10:23:29;;;;;;;13.02;10.05;;;8.60;96.70;;;;;;4951396;28;20044;-71
2021/12/15 10:25:58;;;;;;;15.93;10.65;;;8.60;96.70;;;;;;4955326;28;20631;-70
2021/12/15 10:28:27;;;;;;;13.63;10.05;;;8.70;96.70;;;;;;4956917;28;20035;-71
2021/12/15 10:31:00;;;;;;;12.90;10.20;;;8.80;96.70;;;;;;4954152;28;20247;-71
2021/12/15 10:33:30;;;;;;;14.15;10.25;;;8.80;96.70;;;;;;4952401;28;20094;-71
2021/12/15 10:36:03;;;;;;;13.88;10.07;;;9.00;96.70;;;;;;4953713;28;20509;-71
2021/12/15 10:38:32;;;;;;;15.82;10.60;;;9.00;96.70;;;;;;4952523;28;20039;-71
2021/12/15 10:41:04;;;;;;;14.98;10.50;;;9.10;96.70;;;;;;4952428;28;20039;-71
2021/12/15 10:43:36;;;;;;;15.43;11.65;;;9.30;96.70;;;;;;4956256;28;20501;-71
2021/12/15 10:46:08;;;;;;;16.77;12.45;;;9.40;96.70;;;;;;4951622;28;20050;-71
2021/12/15 10:48:47;;;;;;;18.30;14.48;;;9.50;96.70;;;;;;4950725;28;20043;-71
2021/12/15 10:51:35;;;;;;;16.85;13.00;;;9.50;96.70;;;;;;4951933;28;20485;-71
2021/12/15 10:54:08;;;;;;;19.05;15.32;;;9.60;96.70;;;;;;4959322;28;20082;-70
2021/12/15 10:56:38;;;;;;;19.00;14.65;;;9.70;96.70;;;;;;4953108;28;20534;-70
2021/12/15 10:59:09;;;;;;;19.42;15.27;;;9.80;96.70;;;;;;4956295;28;20066;-70
2021/12/15 11:01:51;;;;;;;17.40;14.20;;;9.90;96.70;;;;;;4950608;28;20090;-71
2021/12/15 11:04:24;;;;;;;19.67;14.52;;;9.90;96.70;;;;;;4953247;28;20051;-71
2021/12/15 11:07:04;;;;;;;15.88;14.23;;;9.90;96.70;;;;;;4951992;28;20422;-72
2021/12/15 11:09:36;;;;;;;37.95;27.60;;;10.00;96.70;;;;;;4954562;28;20047;-72
2021/12/15 11:12:07;;;;;;;43.10;30.80;;;10.00;96.70;;;;;;4951871;28;20102;-71
2021/12/15 11:14:38;;;;;;;24.48;18.95;;;10.10;96.70;;;;;;4954932;28;20074;-71
2021/12/15 11:17:12;;;;;;;20.48;15.70;;;10.10;96.70;;;;;;4956253;28;20051;-71
2021/12/15 11:19:47;;;;;;;18.20;15.00;;;10.20;96.70;;;;;;4962941;28;20042;-71
2021/12/15 11:22:38;;;;;;;17.38;14.45;;;10.30;96.70;;;;;;4954016;28;20046;-71
2021/12/15 11:25:10;;;;;;;15.80;13.68;;;10.30;96.70;;;;;;4953860;28;20045;-71
2021/12/15 11:27:39;;;;;;;16.80;13.20;;;10.40;96.70;;;;;;4954358;28;20497;-71
2021/12/15 11:30:12;;;;;;;15.18;12.40;;;10.50;96.70;;;;;;4971213;28;20046;-71
2021/12/15 11:32:45;;;;;;;16.88;12.18;;;10.70;96.70;;;;;;4955970;28;20046;-71
2021/12/15 11:35:18;;;;;;;15.77;11.73;;;10.80;96.70;;;;;;4936463;28;20046;-71
2021/12/15 11:37:55;;;;;;;13.75;11.75;;;10.80;96.70;;;;;;4935067;28;20043;-71
2021/12/15 11:40:30;;;;;;;14.00;12.15;;;11.00;96.70;;;;;;4955344;28;20047;-71
2021/12/15 11:43:00;;;;;;;17.52;13.35;;;11.00;96.70;;;;;;4974433;28;20485;-71
2021/12/15 11:45:28;;;;;;;15.98;12.23;;;11.10;96.70;;;;;;4954143;28;20492;-71
2021/12/15 11:48:20;;;;;;;15.60;12.77;;;11.20;96.70;;;;;;4969249;28;20050;-71
2021/12/15 11:50:51;;;;;;;14.82;11.90;;;11.30;96.70;;;;;;4969731;28;20043;-71
2021/12/15 11:53:31;;;;;;;17.27;13.02;;;11.40;96.70;;;;;;4977165;28;20039;-71
2021/12/15 11:56:23;;;;;;;13.63;12.13;;;11.50;96.70;;;;;;4975510;28;20046;-71
2021/12/15 11:58:56;;;;;;;13.87;11.60;;;11.60;96.70;;;;;;4960139;28;20047;-71
2021/12/15 12:01:42;;;;;;;11.65;10.45;;;11.70;96.70;;;;;;4979724;28;20359;-71
2021/12/15 12:04:16;;;;;;;13.53;11.20;;;12.00;96.70;;;;;;4957904;28;20121;-71
2021/12/15 12:06:47;;;;;;;16.33;12.35;;;12.00;96.70;;;;;;4973037;28;20387;-71
2021/12/15 12:09:18;;;;;;;14.20;11.55;;;12.10;96.70;;;;;;4958215;28;20563;-71
2021/12/15 12:11:52;;;;;;;14.80;11.45;;;12.10;96.70;;;;;;4958422;28;20070;-71
2021/12/15 12:17:28;;;;;;;13.32;9.63;;;12.40;96.70;;;;;;4921145;29;20055;-71
2021/12/15 12:20:01;;;;;;;10.25;9.15;;;12.60;96.70;;;;;;4921682;29;20134;-71
2021/12/15 12:22:32;;;;;;;12.25;10.95;;;12.80;96.70;;;;;;4906814;29;20040;-71
2021/12/15 12:25:07;;;;;;;14.48;10.27;;;12.80;96.70;;;;;;4907974;29;20082;-71
2021/12/15 12:27:36;;;;;;;13.05;10.35;;;12.80;96.70;;;;;;4919456;29;20450;-71
2021/12/15 12:30:10;;;;;;;10.70;9.50;;;12.90;96.70;;;;;;4908376;29;20047;-71
2021/12/15 12:32:39;;;;;;;11.18;8.40;;;13.00;96.70;;;;;;4922206;29;20063;-71
2021/12/15 12:35:11;;;;;;;11.95;9.57;;;13.10;96.70;;;;;;4923650;29;21087;-71
2021/12/15 12:37:43;;;;;;;10.77;9.27;;;13.20;96.70;;;;;;4920646;29;20067;-71
2021/12/15 12:40:19;;;;;;;9.80;8.40;;;13.30;96.70;;;;;;4922714;29;20059;-71
2021/12/15 12:42:48;;;;;;;10.05;8.68;;;13.30;96.70;;;;;;4917020;29;20052;-71
2021/12/15 12:45:25;;;;;;;13.02;9.10;;;13.50;96.70;;;;;;4923178;29;20055;-71
2021/12/15 12:48:07;;;;;;;11.65;9.75;;;13.60;96.70;;;;;;4920973;29;20068;-71
2021/12/15 12:59:32;;;;;;;9.90;8.82;;;13.80;96.70;;;;;;4960097;28;20149;-71
2021/12/15 13:02:05;;;;;;;11.45;9.80;;;13.90;96.70;;;;;;4975769;28;20149;-71
2021/12/15 13:04:40;;;;;;;11.77;10.35;;;13.90;96.70;;;;;;4960280;28;20041;-71
2021/12/15 13:07:11;;;;;;;10.43;9.15;;;13.90;96.70;;;;;;4974546;28;20572;-71
2021/12/15 13:09:46;;;;;;;11.82;10.25;;;13.90;96.70;;;;;;4940562;28;20084;-71
2021/12/15 13:12:22;;;;;;;10.13;8.25;;;14.00;96.70;;;;;;4957169;28;20121;-71
2021/12/15 13:14:52;;;;;;;9.15;7.63;;;14.00;96.70;;;;;;4973303;28;20063;-71
2021/12/15 13:17:25;;;;;;;12.27;7.78;;;14.10;96.70;;;;;;4975597;28;20053;-71
2021/12/15 13:19:56;;;;;;;11.27;8.43;;;14.00;96.70;;;;;;4951913;28;20055;-71
2021/12/15 13:22:43;;;;;;;8.70;6.97;;;13.90;96.70;;;;;;4977559;28;20392;-71
2021/12/15 13:31:08;;;;;;;9.23;7.25;;;13.40;96.70;;;;;;4963586;28;20558;-71
2021/12/15 13:33:48;;;;;;;7.68;6.85;;;13.30;96.70;;;;;;4960130;28;20105;-71
2021/12/15 13:36:19;;;;;;;10.77;7.00;;;13.20;96.70;;;;;;4959257;28;20534;-71
2021/12/15 13:38:52;;;;;;;9.85;6.35;;;13.20;96.70;;;;;;4961667;28;20088;-71
2021/12/15 13:44:30;;;;;;;9.73;7.10;;;13.10;96.70;;;;;;4954069;28;20046;-71
2021/12/15 13:47:01;;;;;;;8.98;6.93;;;13.00;96.70;;;;;;4967822;28;20058;-71
2021/12/15 13:49:41;;;;;;;10.02;7.78;;;13.10;96.70;;;;;;4976675;28;20105;-71
2021/12/15 13:52:20;;;;;;;10.98;8.05;;;13.10;96.70;;;;;;4955376;28;20524;-71
2021/12/15 13:55:16;;;;;;;7.82;7.00;;;13.10;96.70;;;;;;4954401;28;20469;-71
2021/12/15 13:58:13;;;;;;;9.02;6.88;;;13.10;96.70;;;;;;4968608;28;20062;-71
2021/12/15 14:00:54;;;;;;;7.75;6.95;;;13.00;96.70;;;;;;4971922;28;20104;-71
2021/12/15 14:03:38;;;;;;;10.27;6.88;;;13.00;96.70;;;;;;4975409;28;20047;-71
2021/12/15 14:06:11;;;;;;;8.48;6.95;;;13.00;96.70;;;;;;4978531;28;20042;-71
2021/12/15 14:08:42;;;;;;;8.85;6.75;;;13.10;96.70;;;;;;4968512;28;20054;-71
2021/12/15 14:11:20;;;;;;;8.32;6.60;;;13.10;96.70;;;;;;4976227;28;20448;-71
2021/12/15 14:13:53;;;;;;;10.30;6.95;;;13.10;96.70;;;;;;4954709;28;20543;-71
2021/12/15 14:16:51;;;;;;;13.57;8.32;;;13.10;96.70;;;;;;4975119;28;20690;-71
2021/12/15 14:19:26;;;;;;;9.18;7.57;;;13.00;96.70;;;;;;4955318;28;20081;-71
2021/12/15 14:22:00;;;;;;;9.48;7.97;;;13.00;96.70;;;;;;4975640;28;20097;-71
2021/12/15 14:24:28;;;;;;;10.07;8.20;;;13.00;96.70;;;;;;4970151;28;20444;-71
2021/12/15 14:26:58;;;;;;;9.85;7.95;;;13.00;96.70;;;;;;4971955;28;20042;-71
2021/12/15 14:29:29;;;;;;;10.73;8.35;;;13.00;96.70;;;;;;4958548;28;20243;-71
2021/12/15 14:32:01;;;;;;;10.73;7.78;;;12.90;96.70;;;;;;4970416;28;20042;-71
2021/12/15 14:34:32;;;;;;;10.52;7.57;;;12.90;96.70;;;;;;4955879;28;20446;-71
2021/12/15 14:37:03;;;;;;;10.68;7.78;;;12.90;96.70;;;;;;4957773;28;20058;-71
2021/12/15 14:39:35;;;;;;;12.05;8.52;;;12.90;96.70;;;;;;4975342;28;20579;-71
2021/12/15 14:42:07;;;;;;;29.40;18.00;;;12.90;96.70;;;;;;4971884;28;20065;-71
2021/12/15 14:44:39;;;;;;;24.05;15.70;;;12.90;96.70;;;;;;4973883;28;20053;-71
2021/12/15 14:47:09;;;;;;;14.07;10.77;;;12.80;96.70;;;;;;4962186;28;20501;-71
2021/12/15 14:49:39;;;;;;;14.27;10.43;;;12.80;96.70;;;;;;4959673;28;20133;-71
2021/12/15 14:52:11;;;;;;;13.93;9.57;;;12.80;96.70;;;;;;4970478;28;20065;-71